sensor_id;sensor_type;location;lat;lon;timestamp;pressure;altitude;pressure_sealevel;temperature;humidity
43824;BME280;29470;53.550;9.926;2023-02-02T00:00:46;100678.13;;;6.56;100.00
43824;BME280;29470;53.550;9.926;2023-02-02T00:05:51;100682.88;;;6.62;99.93
43824;BME280;29470;53.550;9.926;2023-02-02T00:10:55;100688.28;;;6.55;100.00
43824;BME280;29470;53.550;9.926;2023-02-02T00:15:58;100694.84;;;6.72;100.00
43824;BME280;29470;53.550;9.926;2023-02-02T00:21:19;100692.38;;;6.53;100.00
43824;BME280;29470;53.550;9.926;2023-02-02T00:26:23;100699.34;;;6.74;100.00
43824;BME280;29470;53.550;9.926;2023-02-02T00:31:26;100716.28;;;6.62;100.00
43824;BME280;29470;53.550;9.926;2023-02-02T00:36:29;100725.69;;;6.92;99.98
43824;BME280;29470;53.550;9.926;2023-02-02T00:41:34;100731.31;;;6.47;100.00
43824;BME280;29470;53.550;9.926;2023-02-02T00:46:38;100735.66;;;6.38;100.00
43824;BME280;29470;53.550;9.926;2023-02-02T00:51:40;100743.66;;;6.51;100.00
43824;BME280;29470;53.550;9.926;2023-02-02T00:56:45;100751.09;;;6.48;100.00
43824;BME280;29470;53.550;9.926;2023-02-02T01:01:47;100758.97;;;6.70;100.00
43824;BME280;29470;53.550;9.926;2023-02-02T01:06:51;100775.97;;;6.28;100.00
43824;BME280;29470;53.550;9.926;2023-02-02T01:11:56;100771.25;;;6.43;100.00
43824;BME280;29470;53.550;9.926;2023-02-02T01:16:59;100775.28;;;6.10;100.00
43824;BME280;29470;53.550;9.926;2023-02-02T01:22:02;100775.97;;;5.99;100.00
43824;BME280;29470;53.550;9.926;2023-02-02T01:27:06;100782.66;;;5.78;100.00
43824;BME280;29470;53.550;9.926;2023-02-02T01:32:09;100787.22;;;6.10;100.00
43824;BME280;29470;53.550;9.926;2023-02-02T01:37:12;100794.94;;;6.20;100.00
43824;BME280;29470;53.550;9.926;2023-02-02T01:42:20;100802.47;;;6.38;100.00
43824;BME280;29470;53.550;9.926;2023-02-02T01:47:25;100813.50;;;6.37;100.00
43824;BME280;29470;53.550;9.926;2023-02-02T01:52:31;100830.91;;;6.20;100.00
43824;BME280;29470;53.550;9.926;2023-02-02T01:57:40;100852.94;;;6.37;100.00
43824;BME280;29470;53.550;9.926;2023-02-02T02:02:46;100842.75;;;6.28;100.00
43824;BME280;29470;53.550;9.926;2023-02-02T02:07:59;100860.63;;;6.08;100.00
43824;BME280;29470;53.550;9.926;2023-02-02T02:13:05;100862.94;;;6.04;100.00
43824;BME280;29470;53.550;9.926;2023-02-02T02:18:18;100871.69;;;6.07;100.00
43824;BME280;29470;53.550;9.926;2023-02-02T02:24:01;100885.19;;;5.95;100.00
43824;BME280;29470;53.550;9.926;2023-02-02T02:35:24;100904.56;;;5.92;100.00
43824;BME280;29470;53.550;9.926;2023-02-02T02:40:35;100913.91;;;5.72;100.00
43824;BME280;29470;53.550;9.926;2023-02-02T02:45:40;100898.44;;;5.81;100.00
43824;BME280;29470;53.550;9.926;2023-02-02T02:50:47;100898.72;;;5.84;100.00
43824;BME280;29470;53.550;9.926;2023-02-02T02:55:55;100911.47;;;5.73;100.00
43824;BME280;29470;53.550;9.926;2023-02-02T03:01:06;100911.34;;;5.91;100.00
43824;BME280;29470;53.550;9.926;2023-02-02T03:06:19;100910.44;;;5.90;100.00
43824;BME280;29470;53.550;9.926;2023-02-02T03:11:23;100909.63;;;6.00;100.00
43824;BME280;29470;53.550;9.926;2023-02-02T03:16:26;100914.06;;;6.12;100.00
43824;BME280;29470;53.550;9.926;2023-02-02T03:21:31;100939.94;;;5.85;100.00
43824;BME280;29470;53.550;9.926;2023-02-02T03:26:34;100936.63;;;6.06;100.00
43824;BME280;29470;53.550;9.926;2023-02-02T03:31:37;100945.38;;;6.08;100.00
43824;BME280;29470;53.550;9.926;2023-02-02T03:36:42;100959.91;;;6.07;100.00
43824;BME280;29470;53.550;9.926;2023-02-02T03:41:45;100958.09;;;6.06;100.00
43824;BME280;29470;53.550;9.926;2023-02-02T03:46:47;100974.28;;;5.96;100.00
43824;BME280;29470;53.550;9.926;2023-02-02T03:51:51;100972.19;;;5.73;100.00
43824;BME280;29470;53.550;9.926;2023-02-02T03:56:54;100995.00;;;5.89;100.00
43824;BME280;29470;53.550;9.926;2023-02-02T04:01:57;100997.78;;;5.82;100.00
43824;BME280;29470;53.550;9.926;2023-02-02T04:07:01;100995.38;;;5.83;100.00
43824;BME280;29470;53.550;9.926;2023-02-02T04:12:04;101005.09;;;5.96;100.00
43824;BME280;29470;53.550;9.926;2023-02-02T04:17:07;101008.81;;;5.81;100.00
43824;BME280;29470;53.550;9.926;2023-02-02T04:22:13;101018.28;;;5.90;100.00
43824;BME280;29470;53.550;9.926;2023-02-02T04:27:16;101018.75;;;6.14;100.00
43824;BME280;29470;53.550;9.926;2023-02-02T04:32:19;101029.13;;;5.97;100.00
43824;BME280;29470;53.550;9.926;2023-02-02T04:37:23;101039.09;;;5.94;100.00
43824;BME280;29470;53.550;9.926;2023-02-02T04:42:26;101041.59;;;6.11;100.00
43824;BME280;29470;53.550;9.926;2023-02-02T04:47:29;101054.28;;;6.10;100.00
43824;BME280;29470;53.550;9.926;2023-02-02T04:52:33;101052.06;;;6.04;100.00
43824;BME280;29470;53.550;9.926;2023-02-02T04:57:36;101056.84;;;6.10;100.00
43824;BME280;29470;53.550;9.926;2023-02-02T05:02:39;101053.44;;;6.19;100.00
43824;BME280;29470;53.550;9.926;2023-02-02T05:07:44;101066.44;;;6.21;100.00
43824;BME280;29470;53.550;9.926;2023-02-02T05:12:47;101063.69;;;6.00;100.00
43824;BME280;29470;53.550;9.926;2023-02-02T05:17:49;101062.06;;;6.01;100.00
43824;BME280;29470;53.550;9.926;2023-02-02T05:22:54;101065.28;;;6.17;100.00
43824;BME280;29470;53.550;9.926;2023-02-02T05:27:57;101059.63;;;5.94;100.00
43824;BME280;29470;53.550;9.926;2023-02-02T05:33:00;101082.53;;;6.10;100.00
43824;BME280;29470;53.550;9.926;2023-02-02T05:38:04;101084.34;;;6.11;100.00
43824;BME280;29470;53.550;9.926;2023-02-02T05:43:07;101088.00;;;5.95;100.00
43824;BME280;29470;53.550;9.926;2023-02-02T05:48:12;101100.25;;;6.26;100.00
43824;BME280;29470;53.550;9.926;2023-02-02T05:53:16;101108.03;;;6.36;100.00
43824;BME280;29470;53.550;9.926;2023-02-02T05:58:19;101117.50;;;6.46;100.00
43824;BME280;29470;53.550;9.926;2023-02-02T06:03:22;101114.47;;;6.50;100.00
43824;BME280;29470;53.550;9.926;2023-02-02T06:08:26;101120.09;;;6.46;100.00
43824;BME280;29470;53.550;9.926;2023-02-02T06:13:29;101123.31;;;6.34;100.00
43824;BME280;29470;53.550;9.926;2023-02-02T06:18:33;101130.16;;;6.53;100.00
43824;BME280;29470;53.550;9.926;2023-02-02T06:23:37;101130.31;;;6.74;100.00
43824;BME280;29470;53.550;9.926;2023-02-02T06:28:47;101138.66;;;6.43;100.00
43824;BME280;29470;53.550;9.926;2023-02-02T06:33:55;101143.00;;;6.06;100.00
43824;BME280;29470;53.550;9.926;2023-02-02T06:38:59;101157.78;;;6.37;100.00
43824;BME280;29470;53.550;9.926;2023-02-02T06:44:05;101179.00;;;6.25;100.00
43824;BME280;29470;53.550;9.926;2023-02-02T06:49:08;101177.66;;;6.20;100.00
43824;BME280;29470;53.550;9.926;2023-02-02T06:54:12;101178.31;;;6.65;100.00
43824;BME280;29470;53.550;9.926;2023-02-02T06:59:15;101189.28;;;6.53;100.00
43824;BME280;29470;53.550;9.926;2023-02-02T07:04:18;101198.41;;;6.69;100.00
43824;BME280;29470;53.550;9.926;2023-02-02T07:09:23;101203.72;;;6.61;100.00
43824;BME280;29470;53.550;9.926;2023-02-02T07:14:26;101218.22;;;6.89;100.00
43824;BME280;29470;53.550;9.926;2023-02-02T07:19:29;101229.53;;;6.44;100.00
43824;BME280;29470;53.550;9.926;2023-02-02T07:24:34;101234.22;;;6.67;100.00
43824;BME280;29470;53.550;9.926;2023-02-02T07:29:38;101235.31;;;6.88;100.00
43824;BME280;29470;53.550;9.926;2023-02-02T07:34:41;101246.28;;;6.49;100.00
43824;BME280;29470;53.550;9.926;2023-02-02T07:39:46;101242.59;;;6.56;100.00
43824;BME280;29470;53.550;9.926;2023-02-02T07:44:48;101257.50;;;6.41;100.00
43824;BME280;29470;53.550;9.926;2023-02-02T07:49:51;101266.03;;;6.59;100.00
43824;BME280;29470;53.550;9.926;2023-02-02T07:54:55;101273.63;;;6.48;100.00
43824;BME280;29470;53.550;9.926;2023-02-02T08:00:15;101279.53;;;6.75;100.00
43824;BME280;29470;53.550;9.926;2023-02-02T08:05:18;101284.97;;;7.06;99.63
43824;BME280;29470;53.550;9.926;2023-02-02T08:10:24;101293.31;;;6.76;98.43
43824;BME280;29470;53.550;9.926;2023-02-02T08:15:27;101298.84;;;6.89;98.04
43824;BME280;29470;53.550;9.926;2023-02-02T08:20:30;101315.75;;;6.96;99.06
43824;BME280;29470;53.550;9.926;2023-02-02T08:25:34;101324.94;;;7.03;97.53
43824;BME280;29470;53.550;9.926;2023-02-02T08:30:37;101330.59;;;6.90;98.63
43824;BME280;29470;53.550;9.926;2023-02-02T08:35:40;101339.03;;;6.98;97.11
43824;BME280;29470;53.550;9.926;2023-02-02T08:40:44;101345.44;;;6.92;96.25
43824;BME280;29470;53.550;9.926;2023-02-02T08:45:49;101345.47;;;7.12;97.41
43824;BME280;29470;53.550;9.926;2023-02-02T08:51:06;101347.94;;;7.01;97.25
43824;BME280;29470;53.550;9.926;2023-02-02T08:56:12;101354.47;;;6.98;97.46
43824;BME280;29470;53.550;9.926;2023-02-02T09:01:17;101357.88;;;7.07;100.00
43824;BME280;29470;53.550;9.926;2023-02-02T09:06:23;101376.41;;;6.94;97.24
43824;BME280;29470;53.550;9.926;2023-02-02T09:11:29;101374.47;;;6.91;96.51
43824;BME280;29470;53.550;9.926;2023-02-02T09:16:33;101373.38;;;7.26;93.95
43824;BME280;29470;53.550;9.926;2023-02-02T09:21:36;101393.56;;;7.60;92.03
43824;BME280;29470;53.550;9.926;2023-02-02T09:26:43;101400.63;;;8.09;88.57
43824;BME280;29470;53.550;9.926;2023-02-02T09:31:46;101404.53;;;7.76;90.19
43824;BME280;29470;53.550;9.926;2023-02-02T09:36:49;101415.03;;;7.41;91.87
43824;BME280;29470;53.550;9.926;2023-02-02T09:42:21;101422.94;;;7.43;91.03
43824;BME280;29470;53.550;9.926;2023-02-02T09:47:44;101426.13;;;8.36;86.95
43824;BME280;29470;53.550;9.926;2023-02-02T09:52:55;101435.59;;;8.26;87.12
43824;BME280;29470;53.550;9.926;2023-02-02T09:58:06;101435.50;;;7.87;88.95
43824;BME280;29470;53.550;9.926;2023-02-02T10:03:16;101446.31;;;7.55;91.84
43824;BME280;29470;53.550;9.926;2023-02-02T10:08:26;101445.91;;;8.26;88.48
43824;BME280;29470;53.550;9.926;2023-02-02T10:13:39;101454.00;;;8.02;86.37
43824;BME280;29470;53.550;9.926;2023-02-02T10:18:47;101467.44;;;7.89;87.83
43824;BME280;29470;53.550;9.926;2023-02-02T10:23:52;101476.22;;;7.72;88.15
43824;BME280;29470;53.550;9.926;2023-02-02T10:29:12;101473.09;;;8.23;86.32
43824;BME280;29470;53.550;9.926;2023-02-02T10:34:21;101498.31;;;8.17;84.32
43824;BME280;29470;53.550;9.926;2023-02-02T10:39:32;101511.50;;;8.58;82.67
43824;BME280;29470;53.550;9.926;2023-02-02T10:44:46;101512.53;;;8.22;83.37
43824;BME280;29470;53.550;9.926;2023-02-02T10:49:54;101515.03;;;8.11;83.90
43824;BME280;29470;53.550;9.926;2023-02-02T10:55:05;101523.44;;;9.06;81.06
43824;BME280;29470;53.550;9.926;2023-02-02T11:00:17;101526.03;;;8.77;80.25
43824;BME280;29470;53.550;9.926;2023-02-02T11:05:25;101533.34;;;9.31;78.40
43824;BME280;29470;53.550;9.926;2023-02-02T11:10:51;101534.31;;;9.12;77.89
43824;BME280;29470;53.550;9.926;2023-02-02T11:16:25;101536.22;;;8.75;75.52
43824;BME280;29470;53.550;9.926;2023-02-02T11:21:44;101540.88;;;8.79;75.72
43824;BME280;29470;53.550;9.926;2023-02-02T11:26:50;101553.44;;;8.95;74.07
43824;BME280;29470;53.550;9.926;2023-02-02T11:31:58;101554.03;;;8.82;75.57
43824;BME280;29470;53.550;9.926;2023-02-02T11:37:20;101549.25;;;8.58;75.31
43824;BME280;29470;53.550;9.926;2023-02-02T11:42:24;101559.75;;;8.31;75.74
43824;BME280;29470;53.550;9.926;2023-02-02T11:47:31;101560.69;;;8.51;74.18
43824;BME280;29470;53.550;9.926;2023-02-02T11:52:35;101567.41;;;8.21;75.33
43824;BME280;29470;53.550;9.926;2023-02-02T11:58:17;101557.19;;;8.31;74.07
43824;BME280;29470;53.550;9.926;2023-02-02T12:03:29;101570.16;;;9.09;73.33
43824;BME280;29470;53.550;9.926;2023-02-02T12:08:32;101565.63;;;9.36;71.22
43824;BME280;29470;53.550;9.926;2023-02-02T12:13:42;101570.34;;;9.21;70.50
43824;BME280;29470;53.550;9.926;2023-02-02T12:19:01;101569.13;;;8.78;71.23
43824;BME280;29470;53.550;9.926;2023-02-02T12:24:26;101576.00;;;9.17;71.24
43824;BME280;29470;53.550;9.926;2023-02-02T12:29:59;101579.78;;;8.72;70.46
43824;BME280;29470;53.550;9.926;2023-02-02T12:35:21;101577.38;;;8.84;70.67
43824;BME280;29470;53.550;9.926;2023-02-02T12:40:37;101576.38;;;9.11;70.73
43824;BME280;29470;53.550;9.926;2023-02-02T12:45:53;101574.13;;;8.76;71.96
43824;BME280;29470;53.550;9.926;2023-02-02T12:51:09;101576.06;;;8.40;72.54
43824;BME280;29470;53.550;9.926;2023-02-02T12:56:21;101580.50;;;8.14;73.49
43824;BME280;29470;53.550;9.926;2023-02-02T13:01:37;101582.28;;;8.43;73.13
43824;BME280;29470;53.550;9.926;2023-02-02T13:06:57;101596.53;;;8.20;74.16
43824;BME280;29470;53.550;9.926;2023-02-02T13:12:07;101594.16;;;8.32;74.65
43824;BME280;29470;53.550;9.926;2023-02-02T13:17:17;101596.38;;;8.18;75.63
43824;BME280;29470;53.550;9.926;2023-02-02T13:22:27;101596.31;;;8.55;71.81
43824;BME280;29470;53.550;9.926;2023-02-02T13:27:33;101588.16;;;8.69;69.01
43824;BME280;29470;53.550;9.926;2023-02-02T13:32:46;101600.00;;;8.67;70.19
43824;BME280;29470;53.550;9.926;2023-02-02T13:38:00;101597.84;;;8.72;67.44
43824;BME280;29470;53.550;9.926;2023-02-02T13:43:15;101602.44;;;8.66;65.52
43824;BME280;29470;53.550;9.926;2023-02-02T13:48:28;101616.19;;;8.28;67.70
43824;BME280;29470;53.550;9.926;2023-02-02T13:53:51;101606.97;;;8.49;68.94
43824;BME280;29470;53.550;9.926;2023-02-02T13:59:06;101615.84;;;8.81;68.30
43824;BME280;29470;53.550;9.926;2023-02-02T14:04:20;101613.31;;;8.53;70.40
43824;BME280;29470;53.550;9.926;2023-02-02T14:09:27;101619.53;;;8.46;72.53
43824;BME280;29470;53.550;9.926;2023-02-02T14:14:30;101617.88;;;8.47;71.79
43824;BME280;29470;53.550;9.926;2023-02-02T14:19:54;101622.19;;;8.37;73.79
43824;BME280;29470;53.550;9.926;2023-02-02T14:24:59;101629.63;;;8.34;74.78
43824;BME280;29470;53.550;9.926;2023-02-02T14:30:13;101620.88;;;8.23;74.26
43824;BME280;29470;53.550;9.926;2023-02-02T14:35:57;101630.78;;;7.91;75.59
43824;BME280;29470;53.550;9.926;2023-02-02T14:41:09;101634.13;;;8.18;73.32
43824;BME280;29470;53.550;9.926;2023-02-02T14:46:38;101650.00;;;8.22;73.21
43824;BME280;29470;53.550;9.926;2023-02-02T14:51:48;101658.28;;;8.09;74.29
43824;BME280;29470;53.550;9.926;2023-02-02T14:56:56;101666.50;;;7.96;75.21
43824;BME280;29470;53.550;9.926;2023-02-02T15:02:08;101666.72;;;7.80;73.68
43824;BME280;29470;53.550;9.926;2023-02-02T15:07:35;101684.50;;;8.05;73.61
43824;BME280;29470;53.550;9.926;2023-02-02T15:12:42;101693.22;;;7.88;74.08
43824;BME280;29470;53.550;9.926;2023-02-02T15:17:57;101692.13;;;7.95;74.17
43824;BME280;29470;53.550;9.926;2023-02-02T15:23:04;101692.34;;;7.79;74.66
43824;BME280;29470;53.550;9.926;2023-02-02T15:28:16;101701.25;;;7.82;74.57
43824;BME280;29470;53.550;9.926;2023-02-02T15:33:27;101708.47;;;7.50;76.67
43824;BME280;29470;53.550;9.926;2023-02-02T15:38:33;101718.00;;;7.42;77.97
43824;BME280;29470;53.550;9.926;2023-02-02T15:43:39;101727.84;;;7.37;78.09
43824;BME280;29470;53.550;9.926;2023-02-02T15:48:41;101729.06;;;7.41;78.90
43824;BME280;29470;53.550;9.926;2023-02-02T15:53:48;101735.75;;;7.30;80.68
43824;BME280;29470;53.550;9.926;2023-02-02T15:58:54;101749.06;;;7.00;82.11
43824;BME280;29470;53.550;9.926;2023-02-02T16:04:09;101754.78;;;6.88;83.14
43824;BME280;29470;53.550;9.926;2023-02-02T16:09:22;101768.53;;;6.89;83.55
43824;BME280;29470;53.550;9.926;2023-02-02T16:14:27;101777.44;;;6.84;84.25
43824;BME280;29470;53.550;9.926;2023-02-02T16:19:30;101784.00;;;6.98;84.37
43824;BME280;29470;53.550;9.926;2023-02-02T16:24:36;101785.19;;;7.10;84.08
43824;BME280;29470;53.550;9.926;2023-02-02T16:29:42;101789.16;;;7.06;83.60
43824;BME280;29470;53.550;9.926;2023-02-02T16:34:45;101795.53;;;7.19;83.25
43824;BME280;29470;53.550;9.926;2023-02-02T16:39:48;101789.47;;;7.36;83.91
43824;BME280;29470;53.550;9.926;2023-02-02T16:44:52;101788.25;;;7.41;82.39
43824;BME280;29470;53.550;9.926;2023-02-02T16:50:22;101788.09;;;7.22;83.49
43824;BME280;29470;53.550;9.926;2023-02-02T16:55:28;101786.44;;;7.31;83.99
43824;BME280;29470;53.550;9.926;2023-02-02T17:00:59;101783.53;;;7.19;83.90
43824;BME280;29470;53.550;9.926;2023-02-02T17:06:24;101780.97;;;7.11;84.71
43824;BME280;29470;53.550;9.926;2023-02-02T17:11:36;101794.91;;;7.04;85.99
43824;BME280;29470;53.550;9.926;2023-02-02T17:16:40;101795.50;;;7.01;86.09
43824;BME280;29470;53.550;9.926;2023-02-02T17:21:43;101799.75;;;7.01;86.06
43824;BME280;29470;53.550;9.926;2023-02-02T17:26:50;101791.28;;;7.02;85.89
43824;BME280;29470;53.550;9.926;2023-02-02T17:31:54;101792.91;;;7.01;84.80
43824;BME280;29470;53.550;9.926;2023-02-02T17:36:57;101788.03;;;6.78;85.82
43824;BME280;29470;53.550;9.926;2023-02-02T17:42:00;101790.81;;;7.06;86.35
43824;BME280;29470;53.550;9.926;2023-02-02T17:47:07;101790.97;;;6.99;86.17
43824;BME280;29470;53.550;9.926;2023-02-02T17:52:11;101789.00;;;7.14;85.95
43824;BME280;29470;53.550;9.926;2023-02-02T17:57:14;101783.84;;;7.22;84.81
43824;BME280;29470;53.550;9.926;2023-02-02T18:02:18;101784.59;;;7.21;83.59
43824;BME280;29470;53.550;9.926;2023-02-02T18:07:21;101788.69;;;7.19;85.18
43824;BME280;29470;53.550;9.926;2023-02-02T18:12:24;101781.28;;;7.22;84.07
43824;BME280;29470;53.550;9.926;2023-02-02T18:17:28;101779.94;;;7.35;82.84
43824;BME280;29470;53.550;9.926;2023-02-02T18:22:34;101782.66;;;7.36;83.04
43824;BME280;29470;53.550;9.926;2023-02-02T18:27:37;101787.22;;;7.48;81.85
43824;BME280;29470;53.550;9.926;2023-02-02T18:32:41;101765.84;;;7.58;81.47
43824;BME280;29470;53.550;9.926;2023-02-02T18:37:44;101776.31;;;7.42;82.31
43824;BME280;29470;53.550;9.926;2023-02-02T18:42:47;101774.47;;;7.49;82.80
43824;BME280;29470;53.550;9.926;2023-02-02T18:47:52;101768.56;;;7.50;82.50
43824;BME280;29470;53.550;9.926;2023-02-02T18:52:56;101759.31;;;7.52;82.49
43824;BME280;29470;53.550;9.926;2023-02-02T18:58:01;101751.63;;;7.44;83.35
43824;BME280;29470;53.550;9.926;2023-02-02T19:03:09;101764.03;;;7.39;83.37
43824;BME280;29470;53.550;9.926;2023-02-02T19:08:14;101753.75;;;7.48;84.59
43824;BME280;29470;53.550;9.926;2023-02-02T19:13:18;101713.44;;;7.48;82.81
43824;BME280;29470;53.550;9.926;2023-02-02T19:18:23;101715.13;;;7.39;85.59
43824;BME280;29470;53.550;9.926;2023-02-02T19:23:28;101710.88;;;7.57;84.99
43824;BME280;29470;53.550;9.926;2023-02-02T19:28:33;101705.56;;;7.56;84.98
43824;BME280;29470;53.550;9.926;2023-02-02T19:33:39;101710.44;;;7.35;85.38
43824;BME280;29470;53.550;9.926;2023-02-02T19:38:46;101701.38;;;7.21;89.42
43824;BME280;29470;53.550;9.926;2023-02-02T19:43:54;101689.72;;;6.98;92.17
43824;BME280;29470;53.550;9.926;2023-02-02T19:49:03;101697.59;;;7.08;93.73
43824;BME280;29470;53.550;9.926;2023-02-02T19:54:27;101693.06;;;6.88;96.33
43824;BME280;29470;53.550;9.926;2023-02-02T19:59:32;101689.75;;;6.89;100.00
43824;BME280;29470;53.550;9.926;2023-02-02T20:04:40;101690.03;;;6.92;100.00
43824;BME280;29470;53.550;9.926;2023-02-02T20:09:45;101688.06;;;6.90;100.00
43824;BME280;29470;53.550;9.926;2023-02-02T20:14:48;101694.69;;;6.70;100.00
43824;BME280;29470;53.550;9.926;2023-02-02T20:19:52;101681.41;;;6.92;100.00
43824;BME280;29470;53.550;9.926;2023-02-02T20:24:56;101674.91;;;6.78;100.00
43824;BME280;29470;53.550;9.926;2023-02-02T20:30:17;101660.06;;;6.67;100.00
43824;BME280;29470;53.550;9.926;2023-02-02T20:35:27;101655.50;;;6.64;100.00
43824;BME280;29470;53.550;9.926;2023-02-02T20:40:34;101666.28;;;6.95;100.00
43824;BME280;29470;53.550;9.926;2023-02-02T20:45:36;101653.41;;;7.13;100.00
43824;BME280;29470;53.550;9.926;2023-02-02T20:50:41;101637.94;;;7.21;100.00
43824;BME280;29470;53.550;9.926;2023-02-02T20:55:44;101631.63;;;6.83;100.00
43824;BME280;29470;53.550;9.926;2023-02-02T21:00:47;101623.31;;;6.85;100.00
43824;BME280;29470;53.550;9.926;2023-02-02T21:05:51;101619.63;;;7.18;100.00
43824;BME280;29470;53.550;9.926;2023-02-02T21:10:54;101606.81;;;6.92;100.00
43824;BME280;29470;53.550;9.926;2023-02-02T21:16:04;101592.91;;;6.72;100.00
43824;BME280;29470;53.550;9.926;2023-02-02T21:21:26;101590.34;;;6.81;100.00
43824;BME280;29470;53.550;9.926;2023-02-02T21:26:29;101594.88;;;6.57;100.00
43824;BME280;29470;53.550;9.926;2023-02-02T21:31:32;101578.88;;;6.69;100.00
43824;BME280;29470;53.550;9.926;2023-02-02T21:36:41;101597.91;;;6.62;100.00
43824;BME280;29470;53.550;9.926;2023-02-02T21:41:46;101602.59;;;6.57;100.00
43824;BME280;29470;53.550;9.926;2023-02-02T21:46:50;101586.72;;;6.79;100.00
43824;BME280;29470;53.550;9.926;2023-02-02T21:51:56;101581.72;;;6.63;100.00
43824;BME280;29470;53.550;9.926;2023-02-02T21:57:01;101558.75;;;6.82;100.00
43824;BME280;29470;53.550;9.926;2023-02-02T22:02:34;101556.91;;;6.55;100.00
43824;BME280;29470;53.550;9.926;2023-02-02T22:07:41;101545.13;;;6.74;100.00
43824;BME280;29470;53.550;9.926;2023-02-02T22:12:45;101535.16;;;6.42;100.00
43824;BME280;29470;53.550;9.926;2023-02-02T22:17:48;101504.63;;;6.45;100.00
43824;BME280;29470;53.550;9.926;2023-02-02T22:22:53;101492.50;;;6.62;100.00
43824;BME280;29470;53.550;9.926;2023-02-02T22:27:57;101483.16;;;6.62;100.00
43824;BME280;29470;53.550;9.926;2023-02-02T22:33:04;101465.63;;;6.49;100.00
43824;BME280;29470;53.550;9.926;2023-02-02T22:38:09;101454.75;;;6.43;100.00
43824;BME280;29470;53.550;9.926;2023-02-02T22:43:14;101443.06;;;6.65;100.00
43824;BME280;29470;53.550;9.926;2023-02-02T22:48:17;101453.97;;;6.44;100.00
43824;BME280;29470;53.550;9.926;2023-02-02T22:53:22;101438.06;;;6.75;100.00
43824;BME280;29470;53.550;9.926;2023-02-02T22:58:24;101426.69;;;6.82;100.00
43824;BME280;29470;53.550;9.926;2023-02-02T23:03:27;101412.25;;;7.01;100.00
43824;BME280;29470;53.550;9.926;2023-02-02T23:08:32;101416.69;;;6.85;100.00
43824;BME280;29470;53.550;9.926;2023-02-02T23:13:35;101396.13;;;6.85;100.00
43824;BME280;29470;53.550;9.926;2023-02-02T23:18:39;101381.16;;;6.81;100.00
43824;BME280;29470;53.550;9.926;2023-02-02T23:23:43;101367.81;;;6.85;100.00
43824;BME280;29470;53.550;9.926;2023-02-02T23:28:47;101362.75;;;7.04;100.00
43824;BME280;29470;53.550;9.926;2023-02-02T23:33:50;101337.84;;;7.22;100.00
43824;BME280;29470;53.550;9.926;2023-02-02T23:38:54;101347.72;;;6.89;100.00
43824;BME280;29470;53.550;9.926;2023-02-02T23:43:58;101340.56;;;6.59;100.00
43824;BME280;29470;53.550;9.926;2023-02-02T23:49:01;101322.44;;;7.13;100.00
43824;BME280;29470;53.550;9.926;2023-02-02T23:54:08;101325.63;;;6.83;100.00
43824;BME280;29470;53.550;9.926;2023-02-02T23:59:11;101334.22;;;6.92;100.00
